sensor_id;sensor_type;location;lat;lon;timestamp;P1;durP1;ratioP1;P2;durP2;ratioP2
10074;SDS011;5076;42.680;23.288;2022-09-24T00:01:19;5.67;;;3.93;;
10074;SDS011;5076;42.680;23.288;2022-09-24T00:03:48;5.00;;;3.80;;
10074;SDS011;5076;42.680;23.288;2022-09-24T00:06:16;3.73;;;3.37;;
10074;SDS011;5076;42.680;23.288;2022-09-24T00:08:43;6.07;;;3.80;;
10074;SDS011;5076;42.680;23.288;2022-09-24T00:11:11;7.17;;;4.03;;
10074;SDS011;5076;42.680;23.288;2022-09-24T00:13:38;5.50;;;4.00;;
10074;SDS011;5076;42.680;23.288;2022-09-24T00:16:06;4.93;;;4.10;;
10074;SDS011;5076;42.680;23.288;2022-09-24T00:18:33;6.93;;;4.67;;
10074;SDS011;5076;42.680;23.288;2022-09-24T00:21:00;4.90;;;4.27;;
10074;SDS011;5076;42.680;23.288;2022-09-24T00:23:35;4.47;;;4.00;;
10074;SDS011;5076;42.680;23.288;2022-09-24T00:26:02;5.70;;;4.40;;
10074;SDS011;5076;42.680;23.288;2022-09-24T00:28:49;4.70;;;4.07;;
10074;SDS011;5076;42.680;23.288;2022-09-24T00:31:15;4.40;;;3.97;;
10074;SDS011;5076;42.680;23.288;2022-09-24T00:33:42;4.40;;;3.63;;
10074;SDS011;5076;42.680;23.288;2022-09-24T00:36:09;4.03;;;3.63;;
10074;SDS011;5076;42.680;23.288;2022-09-24T00:38:35;5.07;;;4.00;;
10074;SDS011;5076;42.680;23.288;2022-09-24T00:41:02;4.20;;;3.40;;
10074;SDS011;5076;42.680;23.288;2022-09-24T00:43:29;4.00;;;3.53;;
10074;SDS011;5076;42.680;23.288;2022-09-24T00:46:01;4.47;;;3.77;;
10074;SDS011;5076;42.680;23.288;2022-09-24T00:48:30;5.90;;;3.67;;
10074;SDS011;5076;42.680;23.288;2022-09-24T00:50:58;4.63;;;3.60;;
10074;SDS011;5076;42.680;23.288;2022-09-24T00:53:25;4.33;;;3.93;;
10074;SDS011;5076;42.680;23.288;2022-09-24T00:55:56;3.87;;;3.33;;
10074;SDS011;5076;42.680;23.288;2022-09-24T00:58:22;4.40;;;3.60;;
10074;SDS011;5076;42.680;23.288;2022-09-24T01:00:49;6.70;;;4.37;;
10074;SDS011;5076;42.680;23.288;2022-09-24T01:03:20;4.07;;;3.60;;
10074;SDS011;5076;42.680;23.288;2022-09-24T01:05:47;5.73;;;3.93;;
10074;SDS011;5076;42.680;23.288;2022-09-24T01:08:15;4.80;;;4.00;;
10074;SDS011;5076;42.680;23.288;2022-09-24T01:10:46;4.43;;;4.00;;
10074;SDS011;5076;42.680;23.288;2022-09-24T01:13:19;4.77;;;3.90;;
10074;SDS011;5076;42.680;23.288;2022-09-24T01:15:49;4.63;;;3.73;;
10074;SDS011;5076;42.680;23.288;2022-09-24T01:18:21;6.93;;;4.27;;
10074;SDS011;5076;42.680;23.288;2022-09-24T01:20:52;4.93;;;4.20;;
10074;SDS011;5076;42.680;23.288;2022-09-24T01:23:35;5.03;;;4.50;;
10074;SDS011;5076;42.680;23.288;2022-09-24T01:26:10;4.93;;;4.07;;
10074;SDS011;5076;42.680;23.288;2022-09-24T01:28:47;5.13;;;3.77;;
10074;SDS011;5076;42.680;23.288;2022-09-24T01:31:20;5.37;;;4.13;;
10074;SDS011;5076;42.680;23.288;2022-09-24T01:33:48;4.77;;;4.23;;
10074;SDS011;5076;42.680;23.288;2022-09-24T01:36:17;5.63;;;3.90;;
10074;SDS011;5076;42.680;23.288;2022-09-24T01:38:46;5.47;;;4.43;;
10074;SDS011;5076;42.680;23.288;2022-09-24T01:41:13;5.63;;;4.53;;
10074;SDS011;5076;42.680;23.288;2022-09-24T01:43:48;6.47;;;4.70;;
10074;SDS011;5076;42.680;23.288;2022-09-24T01:46:15;5.80;;;4.77;;
10074;SDS011;5076;42.680;23.288;2022-09-24T01:48:45;5.27;;;4.50;;
10074;SDS011;5076;42.680;23.288;2022-09-24T01:51:13;7.23;;;5.70;;
10074;SDS011;5076;42.680;23.288;2022-09-24T01:53:40;6.77;;;5.73;;
10074;SDS011;5076;42.680;23.288;2022-09-24T01:56:12;7.00;;;6.00;;
10074;SDS011;5076;42.680;23.288;2022-09-24T01:58:42;9.77;;;7.00;;
10074;SDS011;5076;42.680;23.288;2022-09-24T02:01:09;7.60;;;6.60;;
10074;SDS011;5076;42.680;23.288;2022-09-24T02:03:38;8.50;;;6.10;;
10074;SDS011;5076;42.680;23.288;2022-09-24T02:06:09;8.27;;;6.50;;
10074;SDS011;5076;42.680;23.288;2022-09-24T02:08:44;8.40;;;6.13;;
10074;SDS011;5076;42.680;23.288;2022-09-24T02:11:11;7.50;;;6.03;;
10074;SDS011;5076;42.680;23.288;2022-09-24T02:13:40;8.53;;;6.50;;
10074;SDS011;5076;42.680;23.288;2022-09-24T02:16:11;7.17;;;5.87;;
10074;SDS011;5076;42.680;23.288;2022-09-24T02:18:47;8.73;;;6.70;;
10074;SDS011;5076;42.680;23.288;2022-09-24T02:21:17;7.73;;;6.43;;
10074;SDS011;5076;42.680;23.288;2022-09-24T02:23:46;8.83;;;6.43;;
10074;SDS011;5076;42.680;23.288;2022-09-24T02:26:16;9.90;;;6.87;;
10074;SDS011;5076;42.680;23.288;2022-09-24T02:28:42;6.90;;;6.20;;
10074;SDS011;5076;42.680;23.288;2022-09-24T02:31:10;10.37;;;6.00;;
10074;SDS011;5076;42.680;23.288;2022-09-24T02:33:40;8.50;;;5.93;;
10074;SDS011;5076;42.680;23.288;2022-09-24T02:36:26;7.00;;;5.33;;
10074;SDS011;5076;42.680;23.288;2022-09-24T02:38:52;9.23;;;5.93;;
10074;SDS011;5076;42.680;23.288;2022-09-24T02:41:19;7.47;;;6.10;;
10074;SDS011;5076;42.680;23.288;2022-09-24T02:43:47;6.70;;;6.00;;
10074;SDS011;5076;42.680;23.288;2022-09-24T02:46:14;6.17;;;5.43;;
10074;SDS011;5076;42.680;23.288;2022-09-24T02:48:40;6.00;;;5.00;;
10074;SDS011;5076;42.680;23.288;2022-09-24T02:51:07;6.47;;;5.50;;
10074;SDS011;5076;42.680;23.288;2022-09-24T02:53:35;7.90;;;5.70;;
10074;SDS011;5076;42.680;23.288;2022-09-24T02:56:01;7.23;;;5.53;;
10074;SDS011;5076;42.680;23.288;2022-09-24T02:58:29;7.13;;;5.87;;
10074;SDS011;5076;42.680;23.288;2022-09-24T03:00:55;7.60;;;6.00;;
10074;SDS011;5076;42.680;23.288;2022-09-24T03:03:22;8.77;;;5.57;;
10074;SDS011;5076;42.680;23.288;2022-09-24T03:05:56;5.70;;;5.00;;
10074;SDS011;5076;42.680;23.288;2022-09-24T03:08:23;7.03;;;5.33;;
10074;SDS011;5076;42.680;23.288;2022-09-24T03:10:52;5.90;;;5.30;;
10074;SDS011;5076;42.680;23.288;2022-09-24T03:13:20;5.83;;;5.17;;
10074;SDS011;5076;42.680;23.288;2022-09-24T03:15:47;7.33;;;5.20;;
10074;SDS011;5076;42.680;23.288;2022-09-24T03:18:15;5.50;;;5.00;;
10074;SDS011;5076;42.680;23.288;2022-09-24T03:20:41;6.00;;;5.10;;
10074;SDS011;5076;42.680;23.288;2022-09-24T03:23:08;5.83;;;5.13;;
10074;SDS011;5076;42.680;23.288;2022-09-24T03:25:35;6.13;;;5.50;;
10074;SDS011;5076;42.680;23.288;2022-09-24T03:28:03;8.83;;;5.53;;
10074;SDS011;5076;42.680;23.288;2022-09-24T03:30:29;7.83;;;5.73;;
10074;SDS011;5076;42.680;23.288;2022-09-24T03:33:13;6.70;;;5.47;;
10074;SDS011;5076;42.680;23.288;2022-09-24T03:35:40;7.80;;;5.70;;
10074;SDS011;5076;42.680;23.288;2022-09-24T03:38:06;6.80;;;4.87;;
10074;SDS011;5076;42.680;23.288;2022-09-24T03:40:33;6.73;;;5.10;;
10074;SDS011;5076;42.680;23.288;2022-09-24T03:42:59;8.53;;;5.37;;
10074;SDS011;5076;42.680;23.288;2022-09-24T03:45:27;7.20;;;5.23;;
10074;SDS011;5076;42.680;23.288;2022-09-24T03:47:54;5.40;;;4.90;;
10074;SDS011;5076;42.680;23.288;2022-09-24T03:50:20;7.27;;;5.67;;
10074;SDS011;5076;42.680;23.288;2022-09-24T03:52:47;6.37;;;5.40;;
10074;SDS011;5076;42.680;23.288;2022-09-24T03:55:14;7.80;;;5.90;;
10074;SDS011;5076;42.680;23.288;2022-09-24T03:57:40;8.90;;;5.90;;
10074;SDS011;5076;42.680;23.288;2022-09-24T04:00:07;8.13;;;6.07;;
10074;SDS011;5076;42.680;23.288;2022-09-24T04:02:35;6.60;;;5.10;;
10074;SDS011;5076;42.680;23.288;2022-09-24T04:05:03;6.83;;;4.90;;
10074;SDS011;5076;42.680;23.288;2022-09-24T04:07:29;8.23;;;5.80;;
10074;SDS011;5076;42.680;23.288;2022-09-24T04:09:56;8.90;;;5.40;;
10074;SDS011;5076;42.680;23.288;2022-09-24T04:12:22;7.13;;;5.23;;
10074;SDS011;5076;42.680;23.288;2022-09-24T04:14:49;6.97;;;5.27;;
10074;SDS011;5076;42.680;23.288;2022-09-24T04:17:15;6.07;;;5.10;;
10074;SDS011;5076;42.680;23.288;2022-09-24T04:19:44;9.47;;;4.77;;
10074;SDS011;5076;42.680;23.288;2022-09-24T04:22:10;7.27;;;5.17;;
10074;SDS011;5076;42.680;23.288;2022-09-24T04:24:37;7.97;;;5.57;;
10074;SDS011;5076;42.680;23.288;2022-09-24T04:27:03;8.83;;;5.23;;
10074;SDS011;5076;42.680;23.288;2022-09-24T04:29:30;5.67;;;5.10;;
10074;SDS011;5076;42.680;23.288;2022-09-24T04:31:56;8.37;;;5.60;;
10074;SDS011;5076;42.680;23.288;2022-09-24T04:34:23;5.90;;;5.30;;
10074;SDS011;5076;42.680;23.288;2022-09-24T04:36:50;8.37;;;6.20;;
10074;SDS011;5076;42.680;23.288;2022-09-24T04:39:17;8.63;;;5.90;;
10074;SDS011;5076;42.680;23.288;2022-09-24T04:41:46;7.17;;;5.80;;
10074;SDS011;5076;42.680;23.288;2022-09-24T04:44:13;7.47;;;6.27;;
10074;SDS011;5076;42.680;23.288;2022-09-24T04:46:39;10.13;;;6.20;;
10074;SDS011;5076;42.680;23.288;2022-09-24T04:49:07;9.63;;;7.17;;
10074;SDS011;5076;42.680;23.288;2022-09-24T04:51:34;9.43;;;5.93;;
10074;SDS011;5076;42.680;23.288;2022-09-24T04:54:02;8.87;;;5.87;;
10074;SDS011;5076;42.680;23.288;2022-09-24T04:56:29;7.70;;;5.40;;
10074;SDS011;5076;42.680;23.288;2022-09-24T04:58:55;9.57;;;6.00;;
10074;SDS011;5076;42.680;23.288;2022-09-24T05:01:22;9.33;;;6.43;;
10074;SDS011;5076;42.680;23.288;2022-09-24T05:03:48;11.50;;;7.23;;
10074;SDS011;5076;42.680;23.288;2022-09-24T05:06:15;11.07;;;6.70;;
10074;SDS011;5076;42.680;23.288;2022-09-24T05:08:41;8.80;;;6.20;;
10074;SDS011;5076;42.680;23.288;2022-09-24T05:11:09;7.83;;;5.90;;
10074;SDS011;5076;42.680;23.288;2022-09-24T05:13:37;7.27;;;6.47;;
10074;SDS011;5076;42.680;23.288;2022-09-24T05:16:03;8.13;;;6.10;;
10074;SDS011;5076;42.680;23.288;2022-09-24T05:18:30;9.47;;;6.33;;
10074;SDS011;5076;42.680;23.288;2022-09-24T05:20:56;9.87;;;6.37;;
10074;SDS011;5076;42.680;23.288;2022-09-24T05:23:23;9.23;;;5.97;;
10074;SDS011;5076;42.680;23.288;2022-09-24T05:25:50;9.67;;;6.33;;
10074;SDS011;5076;42.680;23.288;2022-09-24T05:28:35;10.30;;;6.20;;
10074;SDS011;5076;42.680;23.288;2022-09-24T05:31:03;12.97;;;8.83;;
10074;SDS011;5076;42.680;23.288;2022-09-24T05:33:29;8.80;;;7.70;;
10074;SDS011;5076;42.680;23.288;2022-09-24T05:35:56;8.30;;;6.77;;
10074;SDS011;5076;42.680;23.288;2022-09-24T05:38:23;9.87;;;7.07;;
10074;SDS011;5076;42.680;23.288;2022-09-24T05:40:49;13.30;;;7.13;;
10074;SDS011;5076;42.680;23.288;2022-09-24T05:43:16;8.97;;;6.93;;
10074;SDS011;5076;42.680;23.288;2022-09-24T05:45:45;7.93;;;6.60;;
10074;SDS011;5076;42.680;23.288;2022-09-24T05:48:12;10.27;;;6.73;;
10074;SDS011;5076;42.680;23.288;2022-09-24T05:50:39;7.40;;;5.70;;
10074;SDS011;5076;42.680;23.288;2022-09-24T05:53:06;6.67;;;5.97;;
10074;SDS011;5076;42.680;23.288;2022-09-24T05:55:33;8.80;;;6.77;;
10074;SDS011;5076;42.680;23.288;2022-09-24T05:58:01;10.93;;;6.77;;
10074;SDS011;5076;42.680;23.288;2022-09-24T06:00:28;9.97;;;6.83;;
10074;SDS011;5076;42.680;23.288;2022-09-24T06:03:01;8.43;;;6.53;;
10074;SDS011;5076;42.680;23.288;2022-09-24T06:05:29;7.77;;;6.33;;
10074;SDS011;5076;42.680;23.288;2022-09-24T06:07:57;11.27;;;7.47;;
10074;SDS011;5076;42.680;23.288;2022-09-24T06:10:23;9.10;;;7.03;;
10074;SDS011;5076;42.680;23.288;2022-09-24T06:12:51;7.50;;;6.53;;
10074;SDS011;5076;42.680;23.288;2022-09-24T06:15:17;9.70;;;6.80;;
10074;SDS011;5076;42.680;23.288;2022-09-24T06:17:44;7.10;;;6.40;;
10074;SDS011;5076;42.680;23.288;2022-09-24T06:20:13;12.43;;;7.30;;
10074;SDS011;5076;42.680;23.288;2022-09-24T06:22:40;8.27;;;6.90;;
10074;SDS011;5076;42.680;23.288;2022-09-24T06:25:07;9.57;;;7.07;;
10074;SDS011;5076;42.680;23.288;2022-09-24T06:27:34;7.27;;;6.20;;
10074;SDS011;5076;42.680;23.288;2022-09-24T06:30:00;9.07;;;6.07;;
10074;SDS011;5076;42.680;23.288;2022-09-24T06:32:27;8.60;;;6.10;;
10074;SDS011;5076;42.680;23.288;2022-09-24T06:34:53;7.63;;;6.43;;
10074;SDS011;5076;42.680;23.288;2022-09-24T06:37:21;8.90;;;6.80;;
10074;SDS011;5076;42.680;23.288;2022-09-24T06:39:48;11.47;;;7.00;;
10074;SDS011;5076;42.680;23.288;2022-09-24T06:42:14;9.90;;;7.00;;
10074;SDS011;5076;42.680;23.288;2022-09-24T06:44:41;9.73;;;7.10;;
10074;SDS011;5076;42.680;23.288;2022-09-24T06:47:07;8.07;;;6.20;;
10074;SDS011;5076;42.680;23.288;2022-09-24T06:49:35;11.77;;;7.03;;
10074;SDS011;5076;42.680;23.288;2022-09-24T06:52:02;12.07;;;6.83;;
10074;SDS011;5076;42.680;23.288;2022-09-24T06:54:30;8.17;;;6.77;;
10074;SDS011;5076;42.680;23.288;2022-09-24T06:56:56;9.70;;;6.40;;
10074;SDS011;5076;42.680;23.288;2022-09-24T06:59:23;8.73;;;6.40;;
10074;SDS011;5076;42.680;23.288;2022-09-24T07:01:49;8.67;;;6.50;;
10074;SDS011;5076;42.680;23.288;2022-09-24T07:04:16;7.90;;;7.10;;
10074;SDS011;5076;42.680;23.288;2022-09-24T07:06:43;12.10;;;8.17;;
10074;SDS011;5076;42.680;23.288;2022-09-24T07:09:26;7.67;;;6.87;;
10074;SDS011;5076;42.680;23.288;2022-09-24T07:11:54;9.03;;;6.97;;
10074;SDS011;5076;42.680;23.288;2022-09-24T07:14:25;9.40;;;6.97;;
10074;SDS011;5076;42.680;23.288;2022-09-24T07:16:52;9.13;;;6.33;;
10074;SDS011;5076;42.680;23.288;2022-09-24T07:19:18;7.93;;;6.43;;
10074;SDS011;5076;42.680;23.288;2022-09-24T07:21:45;7.47;;;5.90;;
10074;SDS011;5076;42.680;23.288;2022-09-24T07:24:11;9.23;;;6.07;;
10074;SDS011;5076;42.680;23.288;2022-09-24T07:26:38;9.63;;;6.40;;
10074;SDS011;5076;42.680;23.288;2022-09-24T07:29:06;8.57;;;6.07;;
10074;SDS011;5076;42.680;23.288;2022-09-24T07:31:32;8.40;;;6.10;;
10074;SDS011;5076;42.680;23.288;2022-09-24T07:34:00;8.33;;;5.50;;
10074;SDS011;5076;42.680;23.288;2022-09-24T07:36:26;7.00;;;5.17;;
10074;SDS011;5076;42.680;23.288;2022-09-24T07:38:56;7.47;;;5.80;;
10074;SDS011;5076;42.680;23.288;2022-09-24T07:41:22;7.80;;;5.97;;
10074;SDS011;5076;42.680;23.288;2022-09-24T07:43:49;6.43;;;5.17;;
10074;SDS011;5076;42.680;23.288;2022-09-24T07:46:21;7.70;;;5.63;;
10074;SDS011;5076;42.680;23.288;2022-09-24T07:48:48;7.13;;;5.80;;
10074;SDS011;5076;42.680;23.288;2022-09-24T07:51:14;8.17;;;5.60;;
10074;SDS011;5076;42.680;23.288;2022-09-24T07:53:41;7.70;;;6.10;;
10074;SDS011;5076;42.680;23.288;2022-09-24T07:56:08;7.53;;;6.77;;
10074;SDS011;5076;42.680;23.288;2022-09-24T07:58:35;7.07;;;5.60;;
10074;SDS011;5076;42.680;23.288;2022-09-24T08:01:01;7.53;;;6.20;;
10074;SDS011;5076;42.680;23.288;2022-09-24T08:03:29;8.17;;;6.00;;
10074;SDS011;5076;42.680;23.288;2022-09-24T08:05:56;6.57;;;5.87;;
10074;SDS011;5076;42.680;23.288;2022-09-24T08:08:24;6.33;;;5.67;;
10074;SDS011;5076;42.680;23.288;2022-09-24T08:10:50;8.10;;;6.40;;
10074;SDS011;5076;42.680;23.288;2022-09-24T08:13:17;7.20;;;5.67;;
10074;SDS011;5076;42.680;23.288;2022-09-24T08:15:43;8.20;;;5.77;;
10074;SDS011;5076;42.680;23.288;2022-09-24T08:18:10;6.73;;;5.97;;
10074;SDS011;5076;42.680;23.288;2022-09-24T08:20:38;6.57;;;5.60;;
10074;SDS011;5076;42.680;23.288;2022-09-24T08:23:05;8.13;;;5.83;;
10074;SDS011;5076;42.680;23.288;2022-09-24T08:25:34;8.37;;;5.97;;
10074;SDS011;5076;42.680;23.288;2022-09-24T08:28:00;8.03;;;6.53;;
10074;SDS011;5076;42.680;23.288;2022-09-24T08:30:27;5.70;;;5.20;;
10074;SDS011;5076;42.680;23.288;2022-09-24T08:32:55;8.30;;;5.30;;
10074;SDS011;5076;42.680;23.288;2022-09-24T08:35:21;7.27;;;5.60;;
10074;SDS011;5076;42.680;23.288;2022-09-24T08:37:49;8.57;;;5.57;;
10074;SDS011;5076;42.680;23.288;2022-09-24T08:40:18;6.63;;;5.40;;
10074;SDS011;5076;42.680;23.288;2022-09-24T08:42:47;8.20;;;5.57;;
10074;SDS011;5076;42.680;23.288;2022-09-24T08:45:16;6.00;;;5.40;;
10074;SDS011;5076;42.680;23.288;2022-09-24T08:48:03;8.33;;;5.47;;
10074;SDS011;5076;42.680;23.288;2022-09-24T08:50:32;6.80;;;5.73;;
10074;SDS011;5076;42.680;23.288;2022-09-24T08:53:09;7.37;;;5.73;;
10074;SDS011;5076;42.680;23.288;2022-09-24T08:55:38;7.50;;;5.90;;
10074;SDS011;5076;42.680;23.288;2022-09-24T09:00:57;5.93;;;5.33;;
10074;SDS011;5076;42.680;23.288;2022-09-24T09:03:29;6.77;;;5.33;;
10074;SDS011;5076;42.680;23.288;2022-09-24T09:05:58;6.73;;;5.93;;
10074;SDS011;5076;42.680;23.288;2022-09-24T09:08:30;5.97;;;5.13;;
10074;SDS011;5076;42.680;23.288;2022-09-24T09:10:59;7.03;;;5.53;;
10074;SDS011;5076;42.680;23.288;2022-09-24T09:13:28;8.23;;;5.60;;
10074;SDS011;5076;42.680;23.288;2022-09-24T09:15:58;5.43;;;4.87;;
10074;SDS011;5076;42.680;23.288;2022-09-24T09:18:27;6.13;;;4.93;;
10074;SDS011;5076;42.680;23.288;2022-09-24T09:21:00;4.80;;;4.33;;
10074;SDS011;5076;42.680;23.288;2022-09-24T09:23:33;5.63;;;5.07;;
10074;SDS011;5076;42.680;23.288;2022-09-24T09:26:01;7.70;;;5.53;;
10074;SDS011;5076;42.680;23.288;2022-09-24T09:28:31;8.00;;;5.43;;
10074;SDS011;5076;42.680;23.288;2022-09-24T09:31:03;6.20;;;4.87;;
10074;SDS011;5076;42.680;23.288;2022-09-24T09:33:37;6.20;;;4.70;;
10074;SDS011;5076;42.680;23.288;2022-09-24T09:36:11;6.27;;;4.77;;
10074;SDS011;5076;42.680;23.288;2022-09-24T09:38:42;5.47;;;4.60;;
10074;SDS011;5076;42.680;23.288;2022-09-24T09:41:12;6.67;;;4.93;;
10074;SDS011;5076;42.680;23.288;2022-09-24T09:43:40;5.90;;;4.33;;
10074;SDS011;5076;42.680;23.288;2022-09-24T09:46:09;6.37;;;4.47;;
10074;SDS011;5076;42.680;23.288;2022-09-24T09:48:40;7.33;;;4.53;;
10074;SDS011;5076;42.680;23.288;2022-09-24T09:51:11;5.33;;;4.70;;
10074;SDS011;5076;42.680;23.288;2022-09-24T09:53:40;5.97;;;4.13;;
10074;SDS011;5076;42.680;23.288;2022-09-24T09:56:07;8.10;;;4.30;;
10074;SDS011;5076;42.680;23.288;2022-09-24T09:58:34;4.47;;;3.70;;
10074;SDS011;5076;42.680;23.288;2022-09-24T10:01:02;3.67;;;3.27;;
10074;SDS011;5076;42.680;23.288;2022-09-24T10:03:29;5.47;;;3.67;;
10074;SDS011;5076;42.680;23.288;2022-09-24T10:05:57;5.17;;;3.53;;
10074;SDS011;5076;42.680;23.288;2022-09-24T10:08:24;8.93;;;3.57;;
10074;SDS011;5076;42.680;23.288;2022-09-24T10:10:53;4.87;;;3.17;;
10074;SDS011;5076;42.680;23.288;2022-09-24T10:13:20;7.50;;;3.33;;
10074;SDS011;5076;42.680;23.288;2022-09-24T10:15:47;4.70;;;1.63;;
10074;SDS011;5076;42.680;23.288;2022-09-24T10:18:14;3.83;;;3.27;;
10074;SDS011;5076;42.680;23.288;2022-09-24T10:20:44;3.50;;;2.33;;
10074;SDS011;5076;42.680;23.288;2022-09-24T10:23:12;1.90;;;1.70;;
10074;SDS011;5076;42.680;23.288;2022-09-24T10:25:47;1.57;;;1.47;;
10074;SDS011;5076;42.680;23.288;2022-09-24T10:28:17;1.30;;;1.20;;
10074;SDS011;5076;42.680;23.288;2022-09-24T10:31:02;4.20;;;1.43;;
10074;SDS011;5076;42.680;23.288;2022-09-24T10:33:34;2.93;;;1.80;;
10074;SDS011;5076;42.680;23.288;2022-09-24T10:36:04;3.33;;;1.50;;
10074;SDS011;5076;42.680;23.288;2022-09-24T10:38:31;3.70;;;1.70;;
10074;SDS011;5076;42.680;23.288;2022-09-24T10:40:58;3.97;;;1.80;;
10074;SDS011;5076;42.680;23.288;2022-09-24T10:43:26;1.53;;;1.17;;
10074;SDS011;5076;42.680;23.288;2022-09-24T10:48:40;1.57;;;1.40;;
10074;SDS011;5076;42.680;23.288;2022-09-24T10:51:10;2.60;;;1.70;;
10074;SDS011;5076;42.680;23.288;2022-09-24T10:53:41;1.60;;;1.50;;
10074;SDS011;5076;42.680;23.288;2022-09-24T10:56:16;3.73;;;2.17;;
10074;SDS011;5076;42.680;23.288;2022-09-24T10:58:54;1.70;;;1.60;;
10074;SDS011;5076;42.680;23.288;2022-09-24T11:01:28;1.83;;;1.63;;
10074;SDS011;5076;42.680;23.288;2022-09-24T11:04:04;2.43;;;1.57;;
10074;SDS011;5076;42.680;23.288;2022-09-24T11:06:36;1.67;;;1.50;;
10074;SDS011;5076;42.680;23.288;2022-09-24T11:09:07;2.30;;;1.60;;
10074;SDS011;5076;42.680;23.288;2022-09-24T11:11:40;3.83;;;1.83;;
10074;SDS011;5076;42.680;23.288;2022-09-24T11:14:19;2.37;;;1.80;;
10074;SDS011;5076;42.680;23.288;2022-09-24T11:16:57;1.70;;;1.60;;
10074;SDS011;5076;42.680;23.288;2022-09-24T11:19:40;2.27;;;1.40;;
10074;SDS011;5076;42.680;23.288;2022-09-24T11:22:12;2.57;;;1.63;;
10074;SDS011;5076;42.680;23.288;2022-09-24T11:24:42;2.37;;;1.87;;
10074;SDS011;5076;42.680;23.288;2022-09-24T11:27:22;1.40;;;1.30;;
10074;SDS011;5076;42.680;23.288;2022-09-24T11:29:58;2.20;;;1.60;;
10074;SDS011;5076;42.680;23.288;2022-09-24T11:32:28;3.90;;;1.80;;
10074;SDS011;5076;42.680;23.288;2022-09-24T11:37:45;3.43;;;1.90;;
10074;SDS011;5076;42.680;23.288;2022-09-24T11:40:18;1.97;;;1.77;;
10074;SDS011;5076;42.680;23.288;2022-09-24T11:42:51;2.60;;;1.47;;
10074;SDS011;5076;42.680;23.288;2022-09-24T11:45:28;2.30;;;1.40;;
10074;SDS011;5076;42.680;23.288;2022-09-24T11:50:44;3.20;;;2.07;;
10074;SDS011;5076;42.680;23.288;2022-09-24T11:53:16;1.93;;;1.63;;
10074;SDS011;5076;42.680;23.288;2022-09-24T11:55:49;1.70;;;1.60;;
10074;SDS011;5076;42.680;23.288;2022-09-24T11:58:19;2.07;;;1.60;;
10074;SDS011;5076;42.680;23.288;2022-09-24T12:00:51;1.33;;;1.20;;
10074;SDS011;5076;42.680;23.288;2022-09-24T12:03:19;4.07;;;1.70;;
10074;SDS011;5076;42.680;23.288;2022-09-24T12:05:47;3.30;;;2.27;;
10074;SDS011;5076;42.680;23.288;2022-09-24T12:08:17;3.37;;;1.40;;
10074;SDS011;5076;42.680;23.288;2022-09-24T12:10:45;6.23;;;2.10;;
10074;SDS011;5076;42.680;23.288;2022-09-24T12:13:14;3.23;;;1.97;;
10074;SDS011;5076;42.680;23.288;2022-09-24T12:15:44;3.73;;;2.50;;
10074;SDS011;5076;42.680;23.288;2022-09-24T12:18:15;1.30;;;1.20;;
10074;SDS011;5076;42.680;23.288;2022-09-24T12:20:44;2.20;;;1.73;;
10074;SDS011;5076;42.680;23.288;2022-09-24T12:23:13;3.60;;;1.83;;
10074;SDS011;5076;42.680;23.288;2022-09-24T12:25:42;2.77;;;1.50;;
10074;SDS011;5076;42.680;23.288;2022-09-24T12:28:10;1.63;;;1.53;;
10074;SDS011;5076;42.680;23.288;2022-09-24T12:30:38;3.73;;;1.60;;
10074;SDS011;5076;42.680;23.288;2022-09-24T12:33:26;4.60;;;1.53;;
10074;SDS011;5076;42.680;23.288;2022-09-24T12:35:56;4.73;;;1.80;;
10074;SDS011;5076;42.680;23.288;2022-09-24T12:38:29;2.87;;;1.60;;
10074;SDS011;5076;42.680;23.288;2022-09-24T12:41:06;3.60;;;1.90;;
10074;SDS011;5076;42.680;23.288;2022-09-24T12:43:37;2.93;;;1.50;;
10074;SDS011;5076;42.680;23.288;2022-09-24T12:46:05;1.90;;;1.40;;
10074;SDS011;5076;42.680;23.288;2022-09-24T12:48:35;1.80;;;1.40;;
10074;SDS011;5076;42.680;23.288;2022-09-24T12:51:03;2.63;;;1.57;;
10074;SDS011;5076;42.680;23.288;2022-09-24T12:53:32;3.30;;;1.97;;
10074;SDS011;5076;42.680;23.288;2022-09-24T12:55:59;5.03;;;2.30;;
10074;SDS011;5076;42.680;23.288;2022-09-24T12:58:27;4.77;;;2.13;;
10074;SDS011;5076;42.680;23.288;2022-09-24T13:01:04;1.63;;;1.53;;
10074;SDS011;5076;42.680;23.288;2022-09-24T13:03:31;2.80;;;1.93;;
10074;SDS011;5076;42.680;23.288;2022-09-24T13:06:00;2.53;;;1.73;;
10074;SDS011;5076;42.680;23.288;2022-09-24T13:08:34;2.50;;;2.23;;
10074;SDS011;5076;42.680;23.288;2022-09-24T13:11:02;1.90;;;1.63;;
10074;SDS011;5076;42.680;23.288;2022-09-24T13:13:30;1.40;;;1.30;;
10074;SDS011;5076;42.680;23.288;2022-09-24T13:15:58;1.20;;;1.10;;
10074;SDS011;5076;42.680;23.288;2022-09-24T13:18:25;1.93;;;1.47;;
10074;SDS011;5076;42.680;23.288;2022-09-24T13:20:56;2.20;;;1.27;;
10074;SDS011;5076;42.680;23.288;2022-09-24T13:23:32;2.10;;;1.40;;
10074;SDS011;5076;42.680;23.288;2022-09-24T13:26:11;1.40;;;1.30;;
10074;SDS011;5076;42.680;23.288;2022-09-24T13:28:49;1.40;;;1.23;;
10074;SDS011;5076;42.680;23.288;2022-09-24T13:31:21;2.87;;;1.97;;
10074;SDS011;5076;42.680;23.288;2022-09-24T13:33:50;2.70;;;1.50;;
10074;SDS011;5076;42.680;23.288;2022-09-24T13:36:21;1.90;;;1.53;;
10074;SDS011;5076;42.680;23.288;2022-09-24T13:38:54;1.57;;;1.47;;
10074;SDS011;5076;42.680;23.288;2022-09-24T13:41:23;1.40;;;1.30;;
10074;SDS011;5076;42.680;23.288;2022-09-24T13:43:51;3.50;;;1.73;;
10074;SDS011;5076;42.680;23.288;2022-09-24T13:46:19;4.13;;;1.47;;
10074;SDS011;5076;42.680;23.288;2022-09-24T13:48:48;1.90;;;1.37;;
10074;SDS011;5076;42.680;23.288;2022-09-24T13:51:15;1.87;;;1.60;;
10074;SDS011;5076;42.680;23.288;2022-09-24T13:53:43;4.73;;;1.93;;
10074;SDS011;5076;42.680;23.288;2022-09-24T13:56:16;1.70;;;1.57;;
10074;SDS011;5076;42.680;23.288;2022-09-24T13:58:43;1.40;;;1.30;;
10074;SDS011;5076;42.680;23.288;2022-09-24T14:01:10;1.50;;;1.40;;
10074;SDS011;5076;42.680;23.288;2022-09-24T14:03:37;1.93;;;1.20;;
10074;SDS011;5076;42.680;23.288;2022-09-24T14:06:08;1.40;;;1.20;;
10074;SDS011;5076;42.680;23.288;2022-09-24T14:08:35;2.43;;;1.37;;
10074;SDS011;5076;42.680;23.288;2022-09-24T14:11:04;3.37;;;2.27;;
10074;SDS011;5076;42.680;23.288;2022-09-24T14:13:35;2.67;;;1.70;;
10074;SDS011;5076;42.680;23.288;2022-09-24T14:16:09;4.57;;;1.80;;
10074;SDS011;5076;42.680;23.288;2022-09-24T14:18:36;2.83;;;1.80;;
10074;SDS011;5076;42.680;23.288;2022-09-24T14:21:05;1.40;;;1.27;;
10074;SDS011;5076;42.680;23.288;2022-09-24T14:23:35;2.30;;;1.33;;
10074;SDS011;5076;42.680;23.288;2022-09-24T14:26:02;1.93;;;1.60;;
10074;SDS011;5076;42.680;23.288;2022-09-24T14:28:29;3.17;;;1.60;;
10074;SDS011;5076;42.680;23.288;2022-09-24T14:30:58;2.07;;;1.50;;
10074;SDS011;5076;42.680;23.288;2022-09-24T14:33:27;1.67;;;1.57;;
10074;SDS011;5076;42.680;23.288;2022-09-24T14:35:54;1.90;;;1.70;;
10074;SDS011;5076;42.680;23.288;2022-09-24T14:38:22;2.00;;;1.57;;
10074;SDS011;5076;42.680;23.288;2022-09-24T14:40:50;3.40;;;1.53;;
10074;SDS011;5076;42.680;23.288;2022-09-24T14:43:19;1.93;;;1.70;;
10074;SDS011;5076;42.680;23.288;2022-09-24T14:45:48;2.97;;;1.77;;
10074;SDS011;5076;42.680;23.288;2022-09-24T14:48:18;3.60;;;2.20;;
10074;SDS011;5076;42.680;23.288;2022-09-24T14:50:45;2.77;;;2.20;;
10074;SDS011;5076;42.680;23.288;2022-09-24T14:53:12;2.63;;;1.90;;
10074;SDS011;5076;42.680;23.288;2022-09-24T14:55:44;5.70;;;2.50;;
10074;SDS011;5076;42.680;23.288;2022-09-24T15:01:05;3.30;;;2.10;;
10074;SDS011;5076;42.680;23.288;2022-09-24T15:03:35;4.53;;;2.63;;
10074;SDS011;5076;42.680;23.288;2022-09-24T15:06:03;3.90;;;2.30;;
10074;SDS011;5076;42.680;23.288;2022-09-24T15:08:30;2.50;;;2.20;;
10074;SDS011;5076;42.680;23.288;2022-09-24T15:10:57;3.07;;;2.77;;
10074;SDS011;5076;42.680;23.288;2022-09-24T15:13:25;2.40;;;2.17;;